sensor_id;sensor_type;location;lat;lon;timestamp;P1;durP1;ratioP1;P2;durP2;ratioP2
37365;SDS011;23239;51.504;7.456;2023-01-15T00:00:00;5.0;;;1.3;;
37365;SDS011;23239;51.504;7.456;2023-01-15T00:01:01;5.0;;;1.3;;
37365;SDS011;23239;51.504;7.456;2023-01-15T00:02:00;5.0;;;1.3;;
37365;SDS011;23239;51.504;7.456;2023-01-15T00:03:00;5.0;;;1.3;;
37365;SDS011;23239;51.504;7.456;2023-01-15T00:04:00;5.0;;;1.3;;
37365;SDS011;23239;51.504;7.456;2023-01-15T00:05:00;6.9;;;1.4;;
37365;SDS011;23239;51.504;7.456;2023-01-15T00:06:00;6.9;;;1.4;;
37365;SDS011;23239;51.504;7.456;2023-01-15T00:07:00;6.9;;;1.4;;
37365;SDS011;23239;51.504;7.456;2023-01-15T00:08:00;6.9;;;1.4;;
37365;SDS011;23239;51.504;7.456;2023-01-15T00:09:00;6.9;;;1.4;;
37365;SDS011;23239;51.504;7.456;2023-01-15T00:10:00;4.6;;;1.4;;
37365;SDS011;23239;51.504;7.456;2023-01-15T00:11:01;4.6;;;1.4;;
37365;SDS011;23239;51.504;7.456;2023-01-15T00:12:00;4.6;;;1.4;;
37365;SDS011;23239;51.504;7.456;2023-01-15T00:13:00;4.6;;;1.4;;
37365;SDS011;23239;51.504;7.456;2023-01-15T00:14:00;4.6;;;1.4;;
37365;SDS011;23239;51.504;7.456;2023-01-15T00:15:00;3.0;;;1.1;;
37365;SDS011;23239;51.504;7.456;2023-01-15T00:16:01;3.0;;;1.1;;
37365;SDS011;23239;51.504;7.456;2023-01-15T00:17:00;3.0;;;1.1;;
37365;SDS011;23239;51.504;7.456;2023-01-15T00:18:00;3.0;;;1.1;;
37365;SDS011;23239;51.504;7.456;2023-01-15T00:19:00;3.0;;;1.1;;
37365;SDS011;23239;51.504;7.456;2023-01-15T00:20:00;4.2;;;1.0;;
37365;SDS011;23239;51.504;7.456;2023-01-15T00:21:00;4.2;;;1.0;;
37365;SDS011;23239;51.504;7.456;2023-01-15T00:22:00;4.2;;;1.0;;
37365;SDS011;23239;51.504;7.456;2023-01-15T00:23:00;4.2;;;1.0;;
37365;SDS011;23239;51.504;7.456;2023-01-15T00:24:00;4.2;;;1.0;;
37365;SDS011;23239;51.504;7.456;2023-01-15T00:25:00;5.8;;;1.2;;
37365;SDS011;23239;51.504;7.456;2023-01-15T00:26:00;5.8;;;1.2;;
37365;SDS011;23239;51.504;7.456;2023-01-15T00:27:00;5.8;;;1.2;;
37365;SDS011;23239;51.504;7.456;2023-01-15T00:28:00;5.8;;;1.2;;
37365;SDS011;23239;51.504;7.456;2023-01-15T00:29:00;5.8;;;1.2;;
37365;SDS011;23239;51.504;7.456;2023-01-15T00:30:00;4.5;;;1.2;;
37365;SDS011;23239;51.504;7.456;2023-01-15T00:31:00;4.5;;;1.2;;
37365;SDS011;23239;51.504;7.456;2023-01-15T00:32:01;4.5;;;1.2;;
37365;SDS011;23239;51.504;7.456;2023-01-15T00:33:00;4.5;;;1.2;;
37365;SDS011;23239;51.504;7.456;2023-01-15T00:34:00;4.5;;;1.2;;
37365;SDS011;23239;51.504;7.456;2023-01-15T00:35:00;3.0;;;0.9;;
37365;SDS011;23239;51.504;7.456;2023-01-15T00:36:00;3.0;;;0.9;;
37365;SDS011;23239;51.504;7.456;2023-01-15T00:37:00;3.0;;;0.9;;
37365;SDS011;23239;51.504;7.456;2023-01-15T00:38:00;3.0;;;0.9;;
37365;SDS011;23239;51.504;7.456;2023-01-15T00:39:00;3.0;;;0.9;;
37365;SDS011;23239;51.504;7.456;2023-01-15T00:40:00;4.1;;;1.3;;
37365;SDS011;23239;51.504;7.456;2023-01-15T00:41:00;4.1;;;1.3;;
37365;SDS011;23239;51.504;7.456;2023-01-15T00:42:00;4.1;;;1.3;;
37365;SDS011;23239;51.504;7.456;2023-01-15T00:43:00;4.1;;;1.3;;
37365;SDS011;23239;51.504;7.456;2023-01-15T00:44:00;4.1;;;1.3;;
37365;SDS011;23239;51.504;7.456;2023-01-15T00:45:00;3.7;;;1.6;;
37365;SDS011;23239;51.504;7.456;2023-01-15T00:46:00;3.7;;;1.6;;
37365;SDS011;23239;51.504;7.456;2023-01-15T00:47:00;3.7;;;1.6;;
37365;SDS011;23239;51.504;7.456;2023-01-15T00:48:00;3.7;;;1.6;;
37365;SDS011;23239;51.504;7.456;2023-01-15T00:49:00;3.7;;;1.6;;
37365;SDS011;23239;51.504;7.456;2023-01-15T00:50:00;5.0;;;1.5;;
37365;SDS011;23239;51.504;7.456;2023-01-15T00:51:00;5.0;;;1.5;;
37365;SDS011;23239;51.504;7.456;2023-01-15T00:52:00;5.0;;;1.5;;
37365;SDS011;23239;51.504;7.456;2023-01-15T00:53:00;5.0;;;1.5;;
37365;SDS011;23239;51.504;7.456;2023-01-15T00:54:00;5.0;;;1.5;;
37365;SDS011;23239;51.504;7.456;2023-01-15T00:55:00;5.2;;;1.8;;
37365;SDS011;23239;51.504;7.456;2023-01-15T00:56:00;5.2;;;1.8;;
37365;SDS011;23239;51.504;7.456;2023-01-15T00:57:00;5.2;;;1.8;;
37365;SDS011;23239;51.504;7.456;2023-01-15T00:58:00;5.2;;;1.8;;
37365;SDS011;23239;51.504;7.456;2023-01-15T00:59:00;5.2;;;1.8;;
37365;SDS011;23239;51.504;7.456;2023-01-15T01:00:00;4.2;;;1.2;;
37365;SDS011;23239;51.504;7.456;2023-01-15T01:01:00;4.2;;;1.2;;
37365;SDS011;23239;51.504;7.456;2023-01-15T01:02:00;4.2;;;1.2;;
37365;SDS011;23239;51.504;7.456;2023-01-15T01:03:00;4.2;;;1.2;;
37365;SDS011;23239;51.504;7.456;2023-01-15T01:04:00;4.2;;;1.2;;
37365;SDS011;23239;51.504;7.456;2023-01-15T01:05:00;3.9;;;1.2;;
37365;SDS011;23239;51.504;7.456;2023-01-15T01:06:00;3.9;;;1.2;;
37365;SDS011;23239;51.504;7.456;2023-01-15T01:07:00;3.9;;;1.2;;
37365;SDS011;23239;51.504;7.456;2023-01-15T01:08:00;3.9;;;1.2;;
37365;SDS011;23239;51.504;7.456;2023-01-15T01:09:00;3.9;;;1.2;;
37365;SDS011;23239;51.504;7.456;2023-01-15T01:10:00;3.9;;;1.3;;
37365;SDS011;23239;51.504;7.456;2023-01-15T01:11:01;3.9;;;1.3;;
37365;SDS011;23239;51.504;7.456;2023-01-15T01:12:00;3.9;;;1.3;;
37365;SDS011;23239;51.504;7.456;2023-01-15T01:13:00;3.9;;;1.3;;
37365;SDS011;23239;51.504;7.456;2023-01-15T01:14:00;3.9;;;1.3;;
37365;SDS011;23239;51.504;7.456;2023-01-15T01:15:00;3.7;;;1.1;;
37365;SDS011;23239;51.504;7.456;2023-01-15T01:16:00;3.7;;;1.1;;
37365;SDS011;23239;51.504;7.456;2023-01-15T01:17:00;3.7;;;1.1;;
37365;SDS011;23239;51.504;7.456;2023-01-15T01:18:00;3.7;;;1.1;;
37365;SDS011;23239;51.504;7.456;2023-01-15T01:19:01;3.7;;;1.1;;
37365;SDS011;23239;51.504;7.456;2023-01-15T01:20:00;3.0;;;1.3;;
37365;SDS011;23239;51.504;7.456;2023-01-15T01:21:00;3.0;;;1.3;;
37365;SDS011;23239;51.504;7.456;2023-01-15T01:22:00;3.0;;;1.3;;
37365;SDS011;23239;51.504;7.456;2023-01-15T01:23:00;3.0;;;1.3;;
37365;SDS011;23239;51.504;7.456;2023-01-15T01:24:00;3.0;;;1.3;;
37365;SDS011;23239;51.504;7.456;2023-01-15T01:25:00;3.7;;;1.2;;
37365;SDS011;23239;51.504;7.456;2023-01-15T01:26:00;3.7;;;1.2;;
37365;SDS011;23239;51.504;7.456;2023-01-15T01:27:00;3.7;;;1.2;;
37365;SDS011;23239;51.504;7.456;2023-01-15T01:28:00;3.7;;;1.2;;
37365;SDS011;23239;51.504;7.456;2023-01-15T01:29:00;3.7;;;1.2;;
37365;SDS011;23239;51.504;7.456;2023-01-15T01:30:00;5.8;;;1.3;;
37365;SDS011;23239;51.504;7.456;2023-01-15T01:31:03;5.8;;;1.3;;
37365;SDS011;23239;51.504;7.456;2023-01-15T01:32:00;5.8;;;1.3;;
37365;SDS011;23239;51.504;7.456;2023-01-15T01:33:00;5.8;;;1.3;;
37365;SDS011;23239;51.504;7.456;2023-01-15T01:34:00;5.8;;;1.3;;
37365;SDS011;23239;51.504;7.456;2023-01-15T01:35:00;5.0;;;1.4;;
37365;SDS011;23239;51.504;7.456;2023-01-15T01:36:00;5.0;;;1.4;;
37365;SDS011;23239;51.504;7.456;2023-01-15T01:37:00;5.0;;;1.4;;
37365;SDS011;23239;51.504;7.456;2023-01-15T01:38:00;5.0;;;1.4;;
37365;SDS011;23239;51.504;7.456;2023-01-15T01:39:00;5.0;;;1.4;;
37365;SDS011;23239;51.504;7.456;2023-01-15T01:40:00;3.3;;;1.0;;
37365;SDS011;23239;51.504;7.456;2023-01-15T01:41:00;3.3;;;1.0;;
37365;SDS011;23239;51.504;7.456;2023-01-15T01:42:00;3.3;;;1.0;;
37365;SDS011;23239;51.504;7.456;2023-01-15T01:43:00;3.3;;;1.0;;
37365;SDS011;23239;51.504;7.456;2023-01-15T01:44:00;3.3;;;1.0;;
37365;SDS011;23239;51.504;7.456;2023-01-15T01:45:02;2.6;;;0.9;;
37365;SDS011;23239;51.504;7.456;2023-01-15T01:46:00;2.6;;;0.9;;
37365;SDS011;23239;51.504;7.456;2023-01-15T01:47:00;2.6;;;0.9;;
37365;SDS011;23239;51.504;7.456;2023-01-15T01:48:01;2.6;;;0.9;;
37365;SDS011;23239;51.504;7.456;2023-01-15T01:49:01;2.6;;;0.9;;
37365;SDS011;23239;51.504;7.456;2023-01-15T01:50:02;3.1;;;0.9;;
37365;SDS011;23239;51.504;7.456;2023-01-15T01:51:00;3.1;;;0.9;;
37365;SDS011;23239;51.504;7.456;2023-01-15T01:52:00;3.1;;;0.9;;
37365;SDS011;23239;51.504;7.456;2023-01-15T01:53:02;3.1;;;0.9;;
37365;SDS011;23239;51.504;7.456;2023-01-15T01:54:00;3.1;;;0.9;;
37365;SDS011;23239;51.504;7.456;2023-01-15T01:55:00;3.8;;;1.1;;
37365;SDS011;23239;51.504;7.456;2023-01-15T01:56:00;3.8;;;1.1;;
37365;SDS011;23239;51.504;7.456;2023-01-15T01:57:00;3.8;;;1.1;;
37365;SDS011;23239;51.504;7.456;2023-01-15T01:58:00;3.8;;;1.1;;
37365;SDS011;23239;51.504;7.456;2023-01-15T01:59:00;3.8;;;1.1;;
37365;SDS011;23239;51.504;7.456;2023-01-15T02:00:00;2.8;;;0.8;;
37365;SDS011;23239;51.504;7.456;2023-01-15T02:01:00;2.8;;;0.8;;
37365;SDS011;23239;51.504;7.456;2023-01-15T02:02:00;2.8;;;0.8;;
37365;SDS011;23239;51.504;7.456;2023-01-15T02:03:00;2.8;;;0.8;;
37365;SDS011;23239;51.504;7.456;2023-01-15T02:04:00;2.8;;;0.8;;
37365;SDS011;23239;51.504;7.456;2023-01-15T02:05:00;3.0;;;0.7;;
37365;SDS011;23239;51.504;7.456;2023-01-15T02:06:00;3.0;;;0.7;;
37365;SDS011;23239;51.504;7.456;2023-01-15T02:07:00;3.0;;;0.7;;
37365;SDS011;23239;51.504;7.456;2023-01-15T02:08:00;3.0;;;0.7;;
37365;SDS011;23239;51.504;7.456;2023-01-15T02:09:00;3.0;;;0.7;;
37365;SDS011;23239;51.504;7.456;2023-01-15T02:10:00;1.5;;;0.6;;
37365;SDS011;23239;51.504;7.456;2023-01-15T02:11:00;1.5;;;0.6;;
37365;SDS011;23239;51.504;7.456;2023-01-15T02:12:01;1.5;;;0.6;;
37365;SDS011;23239;51.504;7.456;2023-01-15T02:13:01;1.5;;;0.6;;
37365;SDS011;23239;51.504;7.456;2023-01-15T02:14:03;1.5;;;0.6;;
37365;SDS011;23239;51.504;7.456;2023-01-15T02:15:02;2.6;;;0.7;;
37365;SDS011;23239;51.504;7.456;2023-01-15T02:16:02;2.6;;;0.7;;
37365;SDS011;23239;51.504;7.456;2023-01-15T02:17:02;2.6;;;0.7;;
37365;SDS011;23239;51.504;7.456;2023-01-15T02:18:02;2.6;;;0.7;;
37365;SDS011;23239;51.504;7.456;2023-01-15T02:19:03;2.6;;;0.7;;
37365;SDS011;23239;51.504;7.456;2023-01-15T02:20:05;3.0;;;0.9;;
37365;SDS011;23239;51.504;7.456;2023-01-15T02:21:00;3.0;;;0.9;;
37365;SDS011;23239;51.504;7.456;2023-01-15T02:22:01;3.0;;;0.9;;
37365;SDS011;23239;51.504;7.456;2023-01-15T02:23:04;3.0;;;0.9;;
37365;SDS011;23239;51.504;7.456;2023-01-15T02:24:02;3.0;;;0.9;;
37365;SDS011;23239;51.504;7.456;2023-01-15T02:25:04;3.2;;;0.9;;
37365;SDS011;23239;51.504;7.456;2023-01-15T02:26:03;3.2;;;0.9;;
37365;SDS011;23239;51.504;7.456;2023-01-15T02:27:04;3.2;;;0.9;;
37365;SDS011;23239;51.504;7.456;2023-01-15T02:28:01;3.2;;;0.9;;
37365;SDS011;23239;51.504;7.456;2023-01-15T02:29:00;3.2;;;0.9;;
37365;SDS011;23239;51.504;7.456;2023-01-15T02:30:01;2.9;;;0.7;;
37365;SDS011;23239;51.504;7.456;2023-01-15T02:31:01;2.9;;;0.7;;
37365;SDS011;23239;51.504;7.456;2023-01-15T02:32:02;2.9;;;0.7;;
37365;SDS011;23239;51.504;7.456;2023-01-15T02:33:02;2.9;;;0.7;;
37365;SDS011;23239;51.504;7.456;2023-01-15T02:34:01;2.9;;;0.7;;
37365;SDS011;23239;51.504;7.456;2023-01-15T02:35:02;6.1;;;1.0;;
37365;SDS011;23239;51.504;7.456;2023-01-15T02:36:00;6.1;;;1.0;;
37365;SDS011;23239;51.504;7.456;2023-01-15T02:37:01;6.1;;;1.0;;
37365;SDS011;23239;51.504;7.456;2023-01-15T02:38:01;6.1;;;1.0;;
37365;SDS011;23239;51.504;7.456;2023-01-15T02:39:01;4.1;;;0.8;;
37365;SDS011;23239;51.504;7.456;2023-01-15T02:40:00;4.1;;;0.8;;
37365;SDS011;23239;51.504;7.456;2023-01-15T02:41:00;4.1;;;0.8;;
37365;SDS011;23239;51.504;7.456;2023-01-15T02:42:01;4.1;;;0.8;;
37365;SDS011;23239;51.504;7.456;2023-01-15T02:43:00;4.1;;;0.8;;
37365;SDS011;23239;51.504;7.456;2023-01-15T02:44:00;2.0;;;0.6;;
37365;SDS011;23239;51.504;7.456;2023-01-15T02:45:00;2.0;;;0.6;;
37365;SDS011;23239;51.504;7.456;2023-01-15T02:46:00;2.0;;;0.6;;
37365;SDS011;23239;51.504;7.456;2023-01-15T02:47:00;2.0;;;0.6;;
37365;SDS011;23239;51.504;7.456;2023-01-15T02:48:01;2.0;;;0.6;;
37365;SDS011;23239;51.504;7.456;2023-01-15T02:49:00;2.6;;;0.9;;
37365;SDS011;23239;51.504;7.456;2023-01-15T02:50:01;2.6;;;0.9;;
37365;SDS011;23239;51.504;7.456;2023-01-15T02:51:01;2.6;;;0.9;;
37365;SDS011;23239;51.504;7.456;2023-01-15T02:52:01;2.6;;;0.9;;
37365;SDS011;23239;51.504;7.456;2023-01-15T02:53:01;2.6;;;0.9;;
37365;SDS011;23239;51.504;7.456;2023-01-15T02:54:00;5.2;;;0.9;;
37365;SDS011;23239;51.504;7.456;2023-01-15T02:55:01;5.2;;;0.9;;
37365;SDS011;23239;51.504;7.456;2023-01-15T02:56:01;5.2;;;0.9;;
37365;SDS011;23239;51.504;7.456;2023-01-15T02:57:00;5.2;;;0.9;;
37365;SDS011;23239;51.504;7.456;2023-01-15T02:58:01;5.2;;;0.9;;
37365;SDS011;23239;51.504;7.456;2023-01-15T02:59:02;4.6;;;0.7;;
37365;SDS011;23239;51.504;7.456;2023-01-15T03:00:00;4.6;;;0.7;;
37365;SDS011;23239;51.504;7.456;2023-01-15T03:01:00;4.6;;;0.7;;
37365;SDS011;23239;51.504;7.456;2023-01-15T03:02:01;4.6;;;0.7;;
37365;SDS011;23239;51.504;7.456;2023-01-15T03:03:00;4.6;;;0.7;;
37365;SDS011;23239;51.504;7.456;2023-01-15T03:04:01;2.9;;;0.9;;
37365;SDS011;23239;51.504;7.456;2023-01-15T03:05:01;2.9;;;0.9;;
37365;SDS011;23239;51.504;7.456;2023-01-15T03:06:01;2.9;;;0.9;;
37365;SDS011;23239;51.504;7.456;2023-01-15T03:07:02;2.9;;;0.9;;
37365;SDS011;23239;51.504;7.456;2023-01-15T03:08:00;2.9;;;0.9;;
37365;SDS011;23239;51.504;7.456;2023-01-15T03:09:00;3.3;;;1.1;;
37365;SDS011;23239;51.504;7.456;2023-01-15T03:10:00;3.3;;;1.1;;
37365;SDS011;23239;51.504;7.456;2023-01-15T03:11:01;3.3;;;1.1;;
37365;SDS011;23239;51.504;7.456;2023-01-15T03:12:01;3.3;;;1.1;;
37365;SDS011;23239;51.504;7.456;2023-01-15T03:13:00;3.3;;;1.1;;
37365;SDS011;23239;51.504;7.456;2023-01-15T03:14:01;5.5;;;1.5;;
37365;SDS011;23239;51.504;7.456;2023-01-15T03:15:02;5.5;;;1.5;;
37365;SDS011;23239;51.504;7.456;2023-01-15T03:16:01;5.5;;;1.5;;
37365;SDS011;23239;51.504;7.456;2023-01-15T03:17:01;5.5;;;1.5;;
37365;SDS011;23239;51.504;7.456;2023-01-15T03:18:00;5.5;;;1.5;;
37365;SDS011;23239;51.504;7.456;2023-01-15T03:19:01;4.5;;;1.2;;
37365;SDS011;23239;51.504;7.456;2023-01-15T03:20:02;4.5;;;1.2;;
37365;SDS011;23239;51.504;7.456;2023-01-15T03:21:02;4.5;;;1.2;;
37365;SDS011;23239;51.504;7.456;2023-01-15T03:22:02;4.5;;;1.2;;
37365;SDS011;23239;51.504;7.456;2023-01-15T03:23:01;4.5;;;1.2;;
37365;SDS011;23239;51.504;7.456;2023-01-15T03:24:00;4.7;;;1.1;;
37365;SDS011;23239;51.504;7.456;2023-01-15T03:25:02;4.7;;;1.1;;
37365;SDS011;23239;51.504;7.456;2023-01-15T03:26:00;4.7;;;1.1;;
37365;SDS011;23239;51.504;7.456;2023-01-15T03:27:00;4.7;;;1.1;;
37365;SDS011;23239;51.504;7.456;2023-01-15T03:28:00;4.7;;;1.1;;
37365;SDS011;23239;51.504;7.456;2023-01-15T03:29:02;3.6;;;1.2;;
37365;SDS011;23239;51.504;7.456;2023-01-15T03:30:02;3.6;;;1.2;;
37365;SDS011;23239;51.504;7.456;2023-01-15T03:31:00;3.6;;;1.2;;
37365;SDS011;23239;51.504;7.456;2023-01-15T03:32:00;3.6;;;1.2;;
37365;SDS011;23239;51.504;7.456;2023-01-15T03:33:00;3.6;;;1.2;;
37365;SDS011;23239;51.504;7.456;2023-01-15T03:34:00;5.4;;;1.4;;
37365;SDS011;23239;51.504;7.456;2023-01-15T03:35:00;5.4;;;1.4;;
37365;SDS011;23239;51.504;7.456;2023-01-15T03:36:00;5.4;;;1.4;;
37365;SDS011;23239;51.504;7.456;2023-01-15T03:37:00;5.4;;;1.4;;
37365;SDS011;23239;51.504;7.456;2023-01-15T03:38:00;5.4;;;1.4;;
37365;SDS011;23239;51.504;7.456;2023-01-15T03:39:00;6.2;;;1.2;;
37365;SDS011;23239;51.504;7.456;2023-01-15T03:40:00;6.2;;;1.2;;
37365;SDS011;23239;51.504;7.456;2023-01-15T03:41:03;6.2;;;1.2;;
37365;SDS011;23239;51.504;7.456;2023-01-15T03:42:03;6.2;;;1.2;;
37365;SDS011;23239;51.504;7.456;2023-01-15T03:43:00;6.2;;;1.2;;
37365;SDS011;23239;51.504;7.456;2023-01-15T03:44:01;6.2;;;1.5;;
37365;SDS011;23239;51.504;7.456;2023-01-15T03:45:01;6.2;;;1.5;;
37365;SDS011;23239;51.504;7.456;2023-01-15T03:46:01;6.2;;;1.5;;
37365;SDS011;23239;51.504;7.456;2023-01-15T03:47:03;6.2;;;1.5;;
37365;SDS011;23239;51.504;7.456;2023-01-15T03:48:00;6.2;;;1.5;;
37365;SDS011;23239;51.504;7.456;2023-01-15T03:49:00;4.7;;;0.9;;
37365;SDS011;23239;51.504;7.456;2023-01-15T03:50:02;4.7;;;0.9;;
37365;SDS011;23239;51.504;7.456;2023-01-15T03:51:01;4.7;;;0.9;;
37365;SDS011;23239;51.504;7.456;2023-01-15T03:52:00;4.7;;;0.9;;
37365;SDS011;23239;51.504;7.456;2023-01-15T03:53:03;4.7;;;0.9;;
37365;SDS011;23239;51.504;7.456;2023-01-15T03:54:00;6.4;;;1.2;;
37365;SDS011;23239;51.504;7.456;2023-01-15T03:55:03;6.4;;;1.2;;
37365;SDS011;23239;51.504;7.456;2023-01-15T03:56:01;6.4;;;1.2;;
37365;SDS011;23239;51.504;7.456;2023-01-15T03:57:01;6.4;;;1.2;;
37365;SDS011;23239;51.504;7.456;2023-01-15T03:58:01;6.4;;;1.2;;
37365;SDS011;23239;51.504;7.456;2023-01-15T03:59:01;4.5;;;0.9;;
37365;SDS011;23239;51.504;7.456;2023-01-15T04:00:03;4.5;;;0.9;;
37365;SDS011;23239;51.504;7.456;2023-01-15T04:01:00;4.5;;;0.9;;
37365;SDS011;23239;51.504;7.456;2023-01-15T04:02:00;4.5;;;0.9;;
37365;SDS011;23239;51.504;7.456;2023-01-15T04:03:00;4.5;;;0.9;;
37365;SDS011;23239;51.504;7.456;2023-01-15T04:04:00;6.2;;;0.9;;
37365;SDS011;23239;51.504;7.456;2023-01-15T04:05:00;6.2;;;0.9;;
37365;SDS011;23239;51.504;7.456;2023-01-15T04:06:00;6.2;;;0.9;;
37365;SDS011;23239;51.504;7.456;2023-01-15T04:07:00;6.2;;;0.9;;
37365;SDS011;23239;51.504;7.456;2023-01-15T04:08:00;6.2;;;0.9;;
37365;SDS011;23239;51.504;7.456;2023-01-15T04:09:00;4.5;;;1.1;;
37365;SDS011;23239;51.504;7.456;2023-01-15T04:10:00;4.5;;;1.1;;
37365;SDS011;23239;51.504;7.456;2023-01-15T04:11:00;4.5;;;1.1;;
37365;SDS011;23239;51.504;7.456;2023-01-15T04:12:00;4.5;;;1.1;;
37365;SDS011;23239;51.504;7.456;2023-01-15T04:13:00;4.5;;;1.1;;
37365;SDS011;23239;51.504;7.456;2023-01-15T04:14:00;2.8;;;0.7;;
37365;SDS011;23239;51.504;7.456;2023-01-15T04:15:00;2.8;;;0.7;;
37365;SDS011;23239;51.504;7.456;2023-01-15T04:16:00;2.8;;;0.7;;
37365;SDS011;23239;51.504;7.456;2023-01-15T04:17:00;2.8;;;0.7;;
37365;SDS011;23239;51.504;7.456;2023-01-15T04:18:00;2.8;;;0.7;;
37365;SDS011;23239;51.504;7.456;2023-01-15T04:19:00;4.8;;;0.9;;
37365;SDS011;23239;51.504;7.456;2023-01-15T04:20:00;4.8;;;0.9;;
37365;SDS011;23239;51.504;7.456;2023-01-15T04:21:00;4.8;;;0.9;;
37365;SDS011;23239;51.504;7.456;2023-01-15T04:22:00;4.8;;;0.9;;
37365;SDS011;23239;51.504;7.456;2023-01-15T04:23:00;4.8;;;0.9;;
37365;SDS011;23239;51.504;7.456;2023-01-15T04:24:00;3.6;;;0.7;;
37365;SDS011;23239;51.504;7.456;2023-01-15T04:25:00;3.6;;;0.7;;
37365;SDS011;23239;51.504;7.456;2023-01-15T04:26:00;3.6;;;0.7;;
37365;SDS011;23239;51.504;7.456;2023-01-15T04:27:00;3.6;;;0.7;;
37365;SDS011;23239;51.504;7.456;2023-01-15T04:28:00;3.6;;;0.7;;
37365;SDS011;23239;51.504;7.456;2023-01-15T04:29:00;4.0;;;0.9;;
37365;SDS011;23239;51.504;7.456;2023-01-15T04:30:00;4.0;;;0.9;;
37365;SDS011;23239;51.504;7.456;2023-01-15T04:31:00;4.0;;;0.9;;
37365;SDS011;23239;51.504;7.456;2023-01-15T04:32:00;4.0;;;0.9;;
37365;SDS011;23239;51.504;7.456;2023-01-15T04:33:00;4.0;;;0.9;;
37365;SDS011;23239;51.504;7.456;2023-01-15T04:34:00;4.7;;;1.0;;
37365;SDS011;23239;51.504;7.456;2023-01-15T04:35:00;4.7;;;1.0;;
37365;SDS011;23239;51.504;7.456;2023-01-15T04:36:00;4.7;;;1.0;;
37365;SDS011;23239;51.504;7.456;2023-01-15T04:37:00;4.7;;;1.0;;
37365;SDS011;23239;51.504;7.456;2023-01-15T04:38:00;4.7;;;1.0;;
37365;SDS011;23239;51.504;7.456;2023-01-15T04:39:00;3.0;;;0.8;;
37365;SDS011;23239;51.504;7.456;2023-01-15T04:40:00;3.0;;;0.8;;
37365;SDS011;23239;51.504;7.456;2023-01-15T04:41:00;3.0;;;0.8;;
37365;SDS011;23239;51.504;7.456;2023-01-15T04:42:00;3.0;;;0.8;;
37365;SDS011;23239;51.504;7.456;2023-01-15T04:43:00;3.0;;;0.8;;
37365;SDS011;23239;51.504;7.456;2023-01-15T04:44:00;4.9;;;1.1;;
37365;SDS011;23239;51.504;7.456;2023-01-15T04:45:00;4.9;;;1.1;;
37365;SDS011;23239;51.504;7.456;2023-01-15T04:46:00;4.9;;;1.1;;
37365;SDS011;23239;51.504;7.456;2023-01-15T04:47:00;4.9;;;1.1;;
37365;SDS011;23239;51.504;7.456;2023-01-15T04:48:00;4.9;;;1.1;;
37365;SDS011;23239;51.504;7.456;2023-01-15T04:49:00;5.7;;;1.2;;
37365;SDS011;23239;51.504;7.456;2023-01-15T04:50:00;5.7;;;1.2;;
37365;SDS011;23239;51.504;7.456;2023-01-15T04:51:01;5.7;;;1.2;;
37365;SDS011;23239;51.504;7.456;2023-01-15T04:52:00;5.7;;;1.2;;
37365;SDS011;23239;51.504;7.456;2023-01-15T04:53:00;5.7;;;1.2;;
37365;SDS011;23239;51.504;7.456;2023-01-15T04:54:01;6.1;;;1.1;;
37365;SDS011;23239;51.504;7.456;2023-01-15T04:55:00;6.1;;;1.1;;
37365;SDS011;23239;51.504;7.456;2023-01-15T04:56:00;6.1;;;1.1;;
37365;SDS011;23239;51.504;7.456;2023-01-15T04:57:00;6.1;;;1.1;;
37365;SDS011;23239;51.504;7.456;2023-01-15T04:58:00;6.1;;;1.1;;
37365;SDS011;23239;51.504;7.456;2023-01-15T04:59:00;3.5;;;1.0;;
37365;SDS011;23239;51.504;7.456;2023-01-15T05:00:00;3.5;;;1.0;;
37365;SDS011;23239;51.504;7.456;2023-01-15T05:01:00;3.5;;;1.0;;
37365;SDS011;23239;51.504;7.456;2023-01-15T05:02:00;3.5;;;1.0;;
37365;SDS011;23239;51.504;7.456;2023-01-15T05:03:00;3.5;;;1.0;;
37365;SDS011;23239;51.504;7.456;2023-01-15T05:04:00;5.2;;;1.0;;
37365;SDS011;23239;51.504;7.456;2023-01-15T05:05:00;5.2;;;1.0;;
37365;SDS011;23239;51.504;7.456;2023-01-15T05:06:00;5.2;;;1.0;;
37365;SDS011;23239;51.504;7.456;2023-01-15T05:07:00;5.2;;;1.0;;
37365;SDS011;23239;51.504;7.456;2023-01-15T05:08:00;5.2;;;1.0;;
37365;SDS011;23239;51.504;7.456;2023-01-15T05:09:00;6.7;;;1.3;;
37365;SDS011;23239;51.504;7.456;2023-01-15T05:10:00;6.7;;;1.3;;
37365;SDS011;23239;51.504;7.456;2023-01-15T05:11:00;6.7;;;1.3;;
37365;SDS011;23239;51.504;7.456;2023-01-15T05:12:00;6.7;;;1.3;;
37365;SDS011;23239;51.504;7.456;2023-01-15T05:13:00;6.7;;;1.3;;
37365;SDS011;23239;51.504;7.456;2023-01-15T05:14:00;6.7;;;0.9;;
37365;SDS011;23239;51.504;7.456;2023-01-15T05:15:00;6.7;;;0.9;;
37365;SDS011;23239;51.504;7.456;2023-01-15T05:17:00;6.7;;;0.9;;
37365;SDS011;23239;51.504;7.456;2023-01-15T05:18:00;6.7;;;0.9;;
37365;SDS011;23239;51.504;7.456;2023-01-15T05:19:01;7.3;;;1.4;;
37365;SDS011;23239;51.504;7.456;2023-01-15T05:20:00;7.3;;;1.4;;
37365;SDS011;23239;51.504;7.456;2023-01-15T05:21:00;7.3;;;1.4;;
37365;SDS011;23239;51.504;7.456;2023-01-15T05:22:00;7.3;;;1.4;;
37365;SDS011;23239;51.504;7.456;2023-01-15T05:23:00;7.3;;;1.4;;
37365;SDS011;23239;51.504;7.456;2023-01-15T05:24:01;7.4;;;1.3;;
37365;SDS011;23239;51.504;7.456;2023-01-15T05:25:00;7.4;;;1.3;;
37365;SDS011;23239;51.504;7.456;2023-01-15T05:26:02;7.4;;;1.3;;
37365;SDS011;23239;51.504;7.456;2023-01-15T05:27:00;7.4;;;1.3;;
37365;SDS011;23239;51.504;7.456;2023-01-15T05:28:00;7.4;;;1.3;;
37365;SDS011;23239;51.504;7.456;2023-01-15T05:29:00;6.6;;;1.3;;
37365;SDS011;23239;51.504;7.456;2023-01-15T05:30:00;6.6;;;1.3;;
37365;SDS011;23239;51.504;7.456;2023-01-15T05:31:04;6.6;;;1.3;;
37365;SDS011;23239;51.504;7.456;2023-01-15T05:32:00;6.6;;;1.3;;
37365;SDS011;23239;51.504;7.456;2023-01-15T05:33:00;6.6;;;1.3;;
37365;SDS011;23239;51.504;7.456;2023-01-15T05:34:00;7.2;;;1.5;;
37365;SDS011;23239;51.504;7.456;2023-01-15T05:35:00;7.2;;;1.5;;
37365;SDS011;23239;51.504;7.456;2023-01-15T05:36:00;7.2;;;1.5;;
37365;SDS011;23239;51.504;7.456;2023-01-15T05:37:00;7.2;;;1.5;;
37365;SDS011;23239;51.504;7.456;2023-01-15T05:38:00;7.2;;;1.5;;
37365;SDS011;23239;51.504;7.456;2023-01-15T05:39:00;7.0;;;1.9;;
37365;SDS011;23239;51.504;7.456;2023-01-15T05:40:00;7.0;;;1.9;;
37365;SDS011;23239;51.504;7.456;2023-01-15T05:41:01;7.0;;;1.9;;
37365;SDS011;23239;51.504;7.456;2023-01-15T05:42:00;7.0;;;1.9;;
37365;SDS011;23239;51.504;7.456;2023-01-15T05:43:00;7.0;;;1.9;;
37365;SDS011;23239;51.504;7.456;2023-01-15T05:44:01;6.1;;;1.9;;
37365;SDS011;23239;51.504;7.456;2023-01-15T05:45:00;6.1;;;1.9;;
37365;SDS011;23239;51.504;7.456;2023-01-15T05:46:00;6.1;;;1.9;;
37365;SDS011;23239;51.504;7.456;2023-01-15T05:47:00;6.1;;;1.9;;
37365;SDS011;23239;51.504;7.456;2023-01-15T05:48:00;6.1;;;1.9;;
37365;SDS011;23239;51.504;7.456;2023-01-15T05:49:00;11.2;;;2.2;;
37365;SDS011;23239;51.504;7.456;2023-01-15T05:50:00;11.2;;;2.2;;
37365;SDS011;23239;51.504;7.456;2023-01-15T05:51:00;11.2;;;2.2;;
37365;SDS011;23239;51.504;7.456;2023-01-15T05:52:00;11.2;;;2.2;;
37365;SDS011;23239;51.504;7.456;2023-01-15T05:53:00;11.2;;;2.2;;
37365;SDS011;23239;51.504;7.456;2023-01-15T05:54:00;7.9;;;1.9;;
37365;SDS011;23239;51.504;7.456;2023-01-15T05:55:00;7.9;;;1.9;;
37365;SDS011;23239;51.504;7.456;2023-01-15T05:56:00;7.9;;;1.9;;
37365;SDS011;23239;51.504;7.456;2023-01-15T05:57:00;7.9;;;1.9;;
37365;SDS011;23239;51.504;7.456;2023-01-15T05:58:00;7.9;;;1.9;;
37365;SDS011;23239;51.504;7.456;2023-01-15T05:59:00;6.9;;;1.4;;
37365;SDS011;23239;51.504;7.456;2023-01-15T06:00:00;6.9;;;1.4;;
37365;SDS011;23239;51.504;7.456;2023-01-15T06:01:04;6.9;;;1.4;;
37365;SDS011;23239;51.504;7.456;2023-01-15T06:02:00;6.9;;;1.4;;
37365;SDS011;23239;51.504;7.456;2023-01-15T06:03:00;6.9;;;1.4;;
37365;SDS011;23239;51.504;7.456;2023-01-15T06:04:00;10.5;;;1.7;;
37365;SDS011;23239;51.504;7.456;2023-01-15T06:05:00;10.5;;;1.7;;
37365;SDS011;23239;51.504;7.456;2023-01-15T06:06:00;10.5;;;1.7;;
37365;SDS011;23239;51.504;7.456;2023-01-15T06:07:00;10.5;;;1.7;;
37365;SDS011;23239;51.504;7.456;2023-01-15T06:08:00;10.5;;;1.7;;
37365;SDS011;23239;51.504;7.456;2023-01-15T06:09:00;7.7;;;1.6;;
37365;SDS011;23239;51.504;7.456;2023-01-15T06:10:00;7.7;;;1.6;;
37365;SDS011;23239;51.504;7.456;2023-01-15T06:11:00;7.7;;;1.6;;
37365;SDS011;23239;51.504;7.456;2023-01-15T06:12:00;7.7;;;1.6;;
37365;SDS011;23239;51.504;7.456;2023-01-15T06:13:00;7.7;;;1.6;;